Portada
METAR-TAF:

METAR-TAF

Aeroports :

Maré, Nova Caledònia

latitud: 21-28-53S, longitud: 168-02-15E, altitud: 42 m

METAR: manca

Hora: 18:33 (07:33 UTC)

Pronòstic

L'informe es va fer fa 14 hores i 33 minuts, a les 17:00 UTC
Pronòstic vàlid del 30 a les 18 UTC al 31 a les 18 UTC
Vent 8 kt del Est/Sud-Est
Visibilitat 10 km o més
Escasses núvols a una alçada de 3000 ft
Probabilitat 40% :
Temporalment
l' 30 a les 18 UTC al 31 a les 06 UTC
Visibilitat: 4500 m
Escasses núvols a una alçada de 2000 ft, Cumulus congestus.
xàfecs de pluja

TAF: NWWR 301700Z 3018/3118 12008KT 9999 FEW030 PROB40 TEMPO 3018/3106 4500 SHRA FEW020TCU

Observacions i pronòstics meteorològics de més de 4000 aeroports (METAR i TAF).

Les estacions disponibles són els punts grocs i vermells al mapa.

Posi el ratolí al punt desitjat per veure el nom de l'estació.

Feu clic per veure les observacions i els pronòstics meteorològics.

Per canviar el mapa: feu clic els botons verds amb una creu de color negre per apropar; al botó verd amb un guió per allunyar la imatge; o en les fletxes verdes per a mapes adjacents.


METAR-TAF: